createdAt,value
2022-08-16T00:00:24.341Z,5.00
2022-08-16T00:03:13.307Z,5.20
2022-08-16T00:06:01.569Z,5.88
2022-08-16T00:08:52.711Z,5.32
2022-08-16T00:11:42.162Z,6.63
2022-08-16T00:14:33.810Z,5.40
2022-08-16T00:17:26.746Z,5.97
2022-08-16T00:20:17.253Z,5.50
2022-08-16T00:23:10.937Z,6.15
2022-08-16T00:26:36.516Z,5.82
2022-08-16T00:29:11.825Z,6.03
2022-08-16T00:32:05.710Z,6.03
2022-08-16T00:34:55.884Z,5.80
2022-08-16T00:37:56.645Z,5.57
2022-08-16T00:40:50.810Z,6.43
2022-08-16T00:43:44.468Z,5.72
2022-08-16T00:46:36.490Z,5.93
2022-08-16T00:49:44.519Z,6.18
2022-08-16T00:52:35.180Z,5.68
2022-08-16T00:55:26.645Z,5.75
2022-08-16T00:58:35.032Z,5.32
2022-08-16T01:01:26.901Z,6.28
2022-08-16T01:04:29.325Z,5.90
2022-08-16T01:07:20.400Z,5.57
2022-08-16T01:10:16.516Z,5.88
2022-08-16T01:13:08.046Z,6.30
2022-08-16T01:16:02.956Z,6.35
2022-08-16T01:18:57.087Z,5.70
2022-08-16T01:21:49.681Z,5.95
2022-08-16T01:24:52.921Z,6.10
2022-08-16T01:27:47.113Z,6.20
2022-08-16T01:30:40.022Z,6.20
2022-08-16T01:33:39.565Z,6.18
2022-08-16T01:36:35.034Z,5.80
2022-08-16T01:39:24.384Z,6.63
2022-08-16T01:42:16.249Z,6.20
2022-08-16T01:45:10.645Z,5.50
2022-08-16T01:48:01.114Z,5.70
2022-08-16T01:51:09.204Z,6.32
2022-08-16T01:54:01.178Z,6.10
2022-08-16T01:56:52.364Z,6.05
2022-08-16T01:59:45.090Z,5.30
2022-08-16T02:02:35.694Z,5.38
2022-08-16T02:05:32.154Z,5.63
2022-08-16T02:08:33.768Z,5.68
2022-08-16T02:11:24.043Z,5.30
2022-08-16T02:14:18.236Z,5.57
2022-08-16T02:17:11.407Z,6.35
2022-08-16T02:20:00.846Z,5.32
2022-08-16T02:22:50.924Z,5.47
2022-08-16T02:25:52.213Z,5.32
2022-08-16T02:28:46.975Z,5.75
2022-08-16T02:32:02.803Z,5.75
2022-08-16T02:34:45.262Z,5.70
2022-08-16T02:37:51.247Z,5.88
2022-08-16T02:40:42.551Z,6.55
2022-08-16T02:43:33.116Z,5.78
2022-08-16T02:46:20.580Z,6.95
2022-08-16T02:49:17.514Z,6.05
2022-08-16T02:52:10.288Z,4.90
2022-08-16T02:55:05.591Z,5.90
2022-08-16T02:57:54.391Z,5.10
2022-08-16T03:00:45.413Z,6.10
2022-08-16T03:04:39.223Z,5.47
2022-08-16T03:06:45.456Z,5.57
2022-08-16T03:09:33.715Z,5.57
2022-08-16T03:12:20.634Z,5.25
2022-08-16T03:15:18.455Z,5.25
2022-08-16T03:18:12.628Z,5.43
2022-08-16T03:21:07.241Z,5.32
2022-08-16T03:23:57.833Z,5.10
2022-08-16T03:26:47.059Z,5.68
2022-08-16T03:29:38.615Z,5.57
2022-08-16T03:32:30.502Z,5.80
2022-08-16T03:35:19.458Z,5.80
2022-08-16T03:38:32.391Z,6.07
2022-08-16T03:41:29.181Z,5.00
2022-08-16T03:44:43.349Z,5.10
2022-08-16T03:47:27.562Z,5.18
2022-08-16T03:50:25.550Z,5.40
2022-08-16T03:53:13.921Z,4.95
2022-08-16T03:56:02.515Z,5.57
2022-08-16T03:58:51.085Z,6.10
2022-08-16T04:01:41.121Z,5.70
2022-08-16T04:04:33.268Z,5.75
2022-08-16T04:07:20.823Z,5.65
2022-08-16T04:10:37.239Z,5.40
2022-08-16T04:13:59.926Z,6.00
2022-08-16T04:16:28.193Z,5.15
2022-08-16T04:19:16.970Z,5.95
2022-08-16T04:22:08.476Z,5.97
2022-08-16T04:24:59.493Z,6.20
2022-08-16T04:27:54.151Z,6.22
2022-08-16T04:30:43.455Z,5.47
2022-08-16T04:33:35.536Z,6.32
2022-08-16T04:36:24.416Z,6.65
2022-08-16T04:39:11.847Z,6.07
2022-08-16T04:42:11.293Z,5.57
2022-08-16T04:45:01.796Z,5.43
2022-08-16T04:47:56.176Z,5.70
2022-08-16T04:50:44.382Z,5.57
2022-08-16T04:53:33.252Z,6.35
2022-08-16T04:56:21.049Z,5.65
2022-08-16T04:59:09.054Z,5.43
2022-08-16T05:01:58.829Z,5.78
2022-08-16T05:04:46.667Z,5.78
2022-08-16T05:07:33.766Z,6.13
2022-08-16T05:10:23.062Z,5.72
2022-08-16T05:13:15.631Z,6.00
2022-08-16T05:16:03.753Z,6.25
2022-08-16T05:18:53.819Z,6.15
2022-08-16T05:21:44.055Z,5.35
2022-08-16T05:24:33.266Z,5.93
2022-08-16T05:27:23.463Z,5.90
2022-08-16T05:30:36.738Z,6.20
2022-08-16T05:33:22.051Z,6.20
2022-08-16T05:36:14.319Z,6.35
2022-08-16T05:39:02.456Z,6.68
2022-08-16T05:41:51.749Z,5.15
2022-08-16T05:44:40.644Z,6.20
2022-08-16T05:47:30.250Z,6.00
2022-08-16T05:50:19.128Z,5.50
2022-08-16T05:53:06.524Z,5.75
2022-08-16T05:55:54.203Z,6.20
2022-08-16T05:58:41.403Z,6.00
2022-08-16T06:01:29.939Z,6.20
2022-08-16T06:04:34.804Z,6.32
2022-08-16T06:07:26.016Z,6.03
2022-08-16T06:10:14.278Z,5.90
2022-08-16T06:13:20.163Z,6.45
2022-08-16T06:16:08.095Z,6.10
2022-08-16T06:18:56.996Z,6.60
2022-08-16T06:21:44.270Z,6.32
2022-08-16T06:24:55.042Z,5.82
2022-08-16T06:27:40.812Z,6.40
2022-08-16T06:30:28.980Z,6.05
2022-08-16T06:33:19.601Z,5.80
2022-08-16T06:36:11.695Z,7.93
2022-08-16T06:39:02.110Z,5.95
2022-08-16T06:41:53.560Z,6.43
2022-08-16T06:44:41.186Z,7.57
2022-08-16T06:47:53.590Z,6.05
2022-08-16T06:50:36.947Z,6.60
2022-08-16T06:53:27.280Z,6.22
2022-08-16T06:56:23.151Z,6.28
2022-08-16T06:59:11.262Z,9.75
2022-08-16T07:01:59.670Z,6.50
2022-08-16T07:04:47.332Z,6.45
2022-08-16T07:07:41.787Z,6.45
2022-08-16T07:10:31.843Z,5.82
2022-08-16T07:13:43.776Z,5.97
2022-08-16T07:16:28.768Z,6.22
2022-08-16T07:19:17.486Z,6.65
2022-08-16T07:22:06.847Z,6.80
2022-08-16T07:25:14.747Z,7.28
2022-08-16T07:28:06.069Z,7.20
2022-08-16T07:30:59.959Z,7.07
2022-08-16T07:33:51.259Z,6.90
2022-08-16T07:36:41.540Z,7.18
2022-08-16T07:39:33.944Z,7.53
2022-08-16T07:42:28.402Z,7.20
2022-08-16T07:45:24.292Z,7.18
2022-08-16T07:48:12.694Z,6.00
2022-08-16T07:51:01.664Z,7.53
2022-08-16T07:54:02.548Z,7.05
2022-08-16T07:56:58.147Z,8.00
2022-08-16T07:59:46.582Z,6.95
2022-08-16T08:02:35.174Z,7.00
2022-08-16T08:05:29.718Z,7.30
2022-08-16T08:08:50.933Z,7.65
2022-08-16T08:11:30.608Z,6.68
2022-08-16T08:14:29.989Z,7.68
2022-08-16T08:17:17.906Z,7.18
2022-08-16T08:20:08.719Z,6.38
2022-08-16T08:23:01.016Z,6.65
2022-08-16T08:25:53.854Z,7.13
2022-08-16T08:28:42.894Z,6.40
2022-08-16T08:31:36.543Z,6.93
2022-08-16T08:34:25.048Z,7.18
2022-08-16T08:37:14.085Z,6.28
2022-08-16T08:40:03.537Z,6.82
2022-08-16T08:42:57.398Z,6.53
2022-08-16T08:45:53.726Z,6.47
2022-08-16T08:48:45.374Z,6.47
2022-08-16T08:51:48.876Z,6.70
2022-08-16T08:54:38.203Z,6.40
2022-08-16T08:57:25.930Z,7.35
2022-08-16T09:00:14.276Z,7.10
2022-08-16T09:03:10.367Z,6.78
2022-08-16T09:05:57.672Z,6.55
2022-08-16T09:08:47.475Z,6.75
2022-08-16T09:11:41.042Z,7.07
2022-08-16T09:14:31.072Z,6.88
2022-08-16T09:17:45.508Z,6.80
2022-08-16T09:20:27.155Z,7.03
2022-08-16T09:23:15.213Z,6.95
2022-08-16T09:26:44.723Z,6.45
2022-08-16T09:29:23.991Z,6.60
2022-08-16T09:32:28.938Z,6.97
2022-08-16T09:35:18.711Z,6.53
2022-08-16T09:38:08.461Z,6.95
2022-08-16T09:40:58.774Z,6.72
2022-08-16T09:43:58.807Z,6.55
2022-08-16T09:46:50.048Z,6.80
2022-08-16T09:49:40.816Z,6.80
2022-08-16T09:52:30.671Z,6.93
2022-08-16T09:55:20.759Z,7.40
2022-08-16T09:58:40.755Z,7.43
2022-08-16T10:01:20.072Z,7.10
2022-08-16T10:04:29.359Z,6.43
2022-08-16T10:07:16.706Z,6.53
2022-08-16T10:10:08.529Z,6.97
2022-08-16T10:13:14.408Z,7.40
2022-08-16T10:16:04.174Z,7.30
2022-08-16T10:19:00.398Z,7.35
2022-08-16T10:21:56.274Z,7.18
2022-08-16T10:24:55.753Z,6.82
2022-08-16T10:27:53.343Z,7.07
2022-08-16T10:30:44.624Z,6.40
2022-08-16T10:33:33.955Z,7.15
2022-08-16T10:36:38.609Z,7.15
2022-08-16T10:39:41.107Z,6.55
2022-08-16T10:42:30.479Z,7.60
2022-08-16T10:45:18.464Z,7.07
2022-08-16T10:48:27.123Z,6.80
2022-08-16T10:51:14.743Z,6.30
2022-08-16T10:54:02.692Z,6.35
2022-08-16T10:56:57.108Z,6.43
2022-08-16T10:59:51.819Z,6.90
2022-08-16T11:03:37.599Z,7.50
2022-08-16T11:06:06.150Z,7.05
2022-08-16T11:12:14.024Z,6.38
2022-08-16T11:15:18.032Z,6.47
2022-08-16T11:19:03.644Z,6.97
2022-08-16T11:21:28.834Z,6.97
2022-08-16T11:27:35.405Z,6.28
2022-08-16T11:30:38.966Z,6.15
2022-08-16T11:33:52.046Z,6.55
2022-08-16T11:36:34.173Z,6.68
2022-08-16T11:39:21.622Z,6.10
2022-08-16T11:42:23.210Z,6.72
2022-08-16T11:45:18.371Z,6.35
2022-08-16T11:48:06.955Z,6.45
2022-08-16T11:50:55.050Z,6.72
2022-08-16T11:53:42.427Z,6.60
2022-08-16T11:56:51.557Z,7.05
2022-08-16T11:59:39.842Z,6.55
2022-08-16T12:02:31.851Z,7.10
2022-08-16T12:05:21.500Z,6.28
2022-08-16T12:08:12.545Z,7.25
2022-08-16T12:11:02.408Z,6.80
2022-08-16T12:13:50.643Z,6.20
2022-08-16T12:16:38.935Z,6.57
2022-08-16T12:19:37.961Z,6.07
2022-08-16T12:22:26.083Z,6.80
2022-08-16T12:25:15.231Z,7.05
2022-08-16T12:28:03.435Z,7.13
2022-08-16T12:30:51.580Z,6.65
2022-08-16T12:33:44.915Z,6.85
2022-08-16T12:36:35.222Z,6.30
2022-08-16T12:39:22.760Z,6.50
2022-08-16T12:42:10.482Z,6.82
2022-08-16T12:44:57.622Z,7.22
2022-08-16T12:48:31.696Z,6.97
2022-08-16T12:51:19.743Z,8.30
2022-08-16T12:54:09.953Z,7.15
2022-08-16T12:56:57.695Z,6.68
2022-08-16T12:59:45.520Z,7.28
2022-08-16T13:02:36.586Z,6.57
2022-08-16T13:05:24.119Z,7.60
2022-08-16T13:08:20.367Z,6.28
2022-08-16T13:11:09.656Z,6.88
2022-08-16T13:13:58.565Z,7.13
2022-08-16T13:16:45.925Z,7.57
2022-08-16T13:19:56.326Z,7.60
2022-08-16T13:22:43.222Z,6.93
2022-08-16T13:25:33.592Z,7.43
2022-08-16T13:28:23.128Z,8.57
2022-08-16T13:31:11.891Z,7.75
2022-08-16T13:34:09.369Z,8.23
2022-08-16T13:36:56.783Z,8.05
2022-08-16T13:39:44.688Z,8.35
2022-08-16T13:42:33.872Z,8.43
2022-08-16T13:45:45.134Z,7.90
2022-08-16T13:48:43.940Z,8.18
2022-08-16T13:51:33.295Z,7.30
2022-08-16T13:54:22.002Z,7.78
2022-08-16T13:57:11.530Z,7.80
2022-08-16T13:59:59.313Z,7.95
2022-08-16T14:02:48.951Z,7.90
2022-08-16T14:05:36.142Z,7.05
2022-08-16T14:08:27.130Z,7.82
2022-08-16T14:11:16.286Z,7.30
2022-08-16T14:14:05.686Z,7.30
2022-08-16T14:16:53.758Z,7.07
2022-08-16T14:19:45.052Z,7.10
2022-08-16T14:22:39.975Z,7.00
2022-08-16T14:25:30.216Z,7.13
2022-08-16T14:28:17.887Z,7.70
2022-08-16T14:31:05.289Z,7.45
2022-08-16T14:33:52.749Z,7.22
2022-08-16T14:36:42.620Z,6.20
2022-08-16T14:39:30.830Z,7.00
2022-08-16T14:42:19.632Z,6.85
2022-08-16T14:45:09.163Z,7.00
2022-08-16T14:47:56.742Z,7.72
2022-08-16T14:50:44.307Z,7.75
2022-08-16T14:53:33.648Z,7.60
2022-08-16T14:56:38.700Z,7.10
2022-08-16T14:59:28.048Z,6.97
2022-08-16T15:02:34.616Z,6.90
2022-08-16T15:05:23.601Z,7.70
2022-08-16T15:08:11.403Z,7.03
2022-08-16T15:11:00.273Z,7.03
2022-08-16T15:13:48.322Z,7.28
2022-08-16T15:16:39.561Z,6.45
2022-08-16T15:19:33.423Z,6.93
2022-08-16T15:22:24.904Z,7.35
2022-08-16T15:25:15.019Z,6.75
2022-08-16T15:28:06.742Z,6.90
2022-08-16T15:31:13.682Z,7.93
2022-08-16T15:34:00.537Z,8.48
2022-08-16T15:36:49.216Z,6.95
2022-08-16T15:39:40.276Z,7.68
2022-08-16T15:42:28.865Z,7.07
2022-08-16T15:45:39.206Z,7.07
2022-08-16T15:48:31.674Z,6.35
2022-08-16T15:51:18.983Z,7.35
2022-08-16T15:54:28.928Z,6.97
2022-08-16T15:57:14.355Z,6.60
2022-08-16T16:00:14.741Z,6.93
2022-08-16T16:03:08.752Z,8.10
2022-08-16T16:05:59.375Z,7.60
2022-08-16T16:08:47.044Z,7.28
2022-08-16T16:11:33.936Z,7.18
2022-08-16T16:14:24.855Z,6.88
2022-08-16T16:17:17.319Z,7.13
2022-08-16T16:20:14.865Z,6.90
2022-08-16T16:23:03.588Z,7.80
2022-08-16T16:25:50.469Z,7.50
2022-08-16T16:29:05.105Z,7.25
2022-08-16T16:31:57.182Z,7.40
2022-08-16T16:34:46.423Z,7.75
2022-08-16T16:37:35.541Z,7.63
2022-08-16T16:40:32.399Z,7.55
2022-08-16T16:43:20.743Z,6.93
2022-08-16T16:46:40.154Z,8.45
2022-08-16T16:49:27.324Z,7.80
2022-08-16T16:52:44.304Z,7.50
2022-08-16T16:55:25.377Z,7.57
2022-08-16T16:58:36.416Z,7.43
2022-08-16T17:01:50.163Z,7.55
2022-08-16T17:04:32.968Z,8.18
2022-08-16T17:07:24.021Z,8.00
2022-08-16T17:10:13.653Z,7.57
2022-08-16T17:13:23.753Z,7.82
2022-08-16T17:16:18.376Z,8.20
2022-08-16T17:19:16.283Z,6.90
2022-08-16T17:22:06.059Z,7.60
2022-08-16T17:25:02.592Z,7.50
2022-08-16T17:27:55.798Z,7.65
2022-08-16T17:30:47.990Z,7.63
2022-08-16T17:33:37.326Z,7.55
2022-08-16T17:36:52.813Z,7.68
2022-08-16T17:39:56.833Z,8.00
2022-08-16T17:42:52.944Z,7.80
2022-08-16T17:45:41.178Z,8.02
2022-08-16T17:48:35.083Z,7.07
2022-08-16T17:51:22.720Z,7.43
2022-08-16T17:54:30.149Z,8.00
2022-08-16T17:57:17.136Z,7.00
2022-08-16T18:00:05.277Z,7.78
2022-08-16T18:02:53.397Z,8.10
2022-08-16T18:05:44.710Z,7.70
2022-08-16T18:08:31.956Z,7.78
2022-08-16T18:11:25.583Z,7.88
2022-08-16T18:14:15.094Z,8.00
2022-08-16T18:17:02.673Z,7.78
2022-08-16T18:19:49.659Z,7.75
2022-08-16T18:22:37.220Z,8.30
2022-08-16T18:25:24.504Z,7.68
2022-08-16T18:28:11.844Z,7.95
2022-08-16T18:31:01.082Z,7.63
2022-08-16T18:33:54.677Z,7.75
2022-08-16T18:36:43.379Z,8.05
2022-08-16T18:39:32.692Z,8.07
2022-08-16T18:42:20.977Z,7.50
2022-08-16T18:45:11.899Z,7.75
2022-08-16T18:47:59.334Z,7.75
2022-08-16T18:50:58.894Z,7.15
2022-08-16T18:53:52.434Z,8.18
2022-08-16T18:56:56.955Z,7.90
2022-08-16T18:59:45.354Z,7.88
2022-08-16T19:02:56.799Z,7.93
2022-08-16T19:05:41.342Z,7.68
2022-08-16T19:08:28.972Z,7.88
2022-08-16T19:11:18.955Z,7.60
2022-08-16T19:14:07.233Z,7.85
2022-08-16T19:16:54.485Z,7.90
2022-08-16T19:19:41.831Z,7.90
2022-08-16T19:22:52.060Z,7.93
2022-08-16T19:25:47.130Z,8.13
2022-08-16T19:28:52.046Z,8.23
2022-08-16T19:31:46.304Z,7.93
2022-08-16T19:34:33.635Z,7.45
2022-08-16T19:37:22.319Z,8.18
2022-08-16T19:40:25.592Z,7.43
2022-08-16T19:43:17.668Z,8.00
2022-08-16T19:46:05.179Z,7.93
2022-08-16T19:48:54.196Z,8.43
2022-08-16T19:51:41.637Z,8.38
2022-08-16T19:54:28.860Z,7.82
2022-08-16T19:57:27.255Z,8.32
2022-08-16T20:00:15.545Z,8.45
2022-08-16T20:03:03.118Z,8.35
2022-08-16T20:05:53.521Z,7.72
2022-08-16T20:08:40.738Z,8.23
2022-08-16T20:11:28.035Z,8.40
2022-08-16T20:14:24.511Z,8.07
2022-08-16T20:17:14.362Z,7.75
2022-08-16T20:20:01.709Z,8.13
2022-08-16T20:22:53.754Z,8.52
2022-08-16T20:25:42.074Z,8.55
2022-08-16T20:28:52.134Z,7.90
2022-08-16T20:31:41.454Z,10.38
2022-08-16T20:34:28.844Z,10.68
2022-08-16T20:37:16.702Z,11.07
2022-08-16T20:40:34.028Z,12.23
2022-08-16T20:43:15.124Z,11.55
2022-08-16T20:46:02.861Z,11.93
2022-08-16T20:48:50.659Z,11.65
2022-08-16T20:51:49.937Z,11.02
2022-08-16T20:54:39.050Z,11.10
2022-08-16T20:57:27.736Z,10.80
2022-08-16T21:00:15.928Z,11.77
2022-08-16T21:03:07.198Z,11.23
2022-08-16T21:05:57.246Z,12.02
2022-08-16T21:08:53.499Z,11.98
2022-08-16T21:11:41.403Z,11.30
2022-08-16T21:14:33.858Z,12.18
2022-08-16T21:17:21.107Z,12.10
2022-08-16T21:20:08.826Z,12.32
2022-08-16T21:22:58.050Z,12.02
2022-08-16T21:25:49.841Z,12.38
2022-08-16T21:28:46.247Z,12.10
2022-08-16T21:31:35.013Z,11.85
2022-08-16T21:34:21.998Z,11.82
2022-08-16T21:37:09.571Z,11.52
2022-08-16T21:39:56.858Z,11.23
2022-08-16T21:42:45.432Z,12.35
2022-08-16T21:45:32.787Z,12.18
2022-08-16T21:48:35.002Z,12.82
2022-08-16T21:51:23.291Z,11.17
2022-08-16T21:54:10.628Z,12.07
2022-08-16T21:56:58.014Z,11.40
2022-08-16T21:59:44.988Z,11.55
2022-08-16T22:02:35.564Z,11.57
2022-08-16T22:08:16.691Z,10.90
2022-08-16T22:11:08.286Z,12.05
2022-08-16T22:13:57.819Z,12.13
2022-08-16T22:16:47.199Z,11.13
2022-08-16T22:19:34.341Z,12.40
2022-08-16T22:22:21.273Z,11.57
2022-08-16T22:25:10.053Z,11.68
2022-08-16T22:27:57.627Z,11.88
2022-08-16T22:30:44.864Z,12.02
2022-08-16T22:33:32.107Z,11.93
2022-08-16T22:36:19.905Z,11.05
2022-08-16T22:39:08.043Z,11.30
2022-08-16T22:41:57.018Z,10.68
2022-08-16T22:44:46.369Z,11.65
2022-08-16T22:47:34.104Z,11.18
2022-08-16T22:50:21.815Z,11.55
2022-08-16T22:53:09.560Z,11.65
2022-08-16T22:55:57.282Z,11.38
2022-08-16T22:58:45.911Z,11.05
2022-08-16T23:01:33.237Z,11.73
2022-08-16T23:04:20.260Z,11.32
2022-08-16T23:07:07.080Z,10.27
2022-08-16T23:09:55.312Z,11.38
2022-08-16T23:12:47.918Z,11.10
2022-08-16T23:15:42.128Z,11.15
2022-08-16T23:21:16.976Z,10.55
2022-08-16T23:24:04.250Z,10.38
2022-08-16T23:26:51.468Z,9.80
2022-08-16T23:29:38.974Z,9.55
2022-08-16T23:32:27.816Z,10.55
2022-08-16T23:35:16.057Z,10.80
2022-08-16T23:38:05.724Z,11.32
2022-08-16T23:40:53.507Z,11.05
2022-08-16T23:43:43.517Z,11.82
2022-08-16T23:46:31.907Z,11.25
2022-08-16T23:49:59.216Z,11.43
2022-08-16T23:52:45.242Z,10.57
2022-08-16T23:55:38.347Z,10.30
2022-08-16T23:58:26.390Z,10.63
